sensor_id;sensor_type;location;lat;lon;timestamp;P1;durP1;ratioP1;P2;durP2;ratioP2
42066;SDS011;27734;47.028;28.820;2022-10-16T00:00:20;43.53;;;23.27;;
42066;SDS011;27734;47.028;28.820;2022-10-16T00:03:11;42.60;;;23.27;;
42066;SDS011;27734;47.028;28.820;2022-10-16T00:05:42;44.53;;;23.63;;
42066;SDS011;27734;47.028;28.820;2022-10-16T00:08:14;41.40;;;23.10;;
42066;SDS011;27734;47.028;28.820;2022-10-16T00:10:45;41.60;;;23.47;;
42066;SDS011;27734;47.028;28.820;2022-10-16T00:13:16;41.27;;;22.67;;
42066;SDS011;27734;47.028;28.820;2022-10-16T00:15:48;40.87;;;22.63;;
42066;SDS011;27734;47.028;28.820;2022-10-16T00:18:19;40.27;;;23.10;;
42066;SDS011;27734;47.028;28.820;2022-10-16T00:20:51;40.53;;;22.33;;
42066;SDS011;27734;47.028;28.820;2022-10-16T00:23:22;39.63;;;21.43;;
42066;SDS011;27734;47.028;28.820;2022-10-16T00:25:56;38.03;;;21.73;;
42066;SDS011;27734;47.028;28.820;2022-10-16T00:28:29;39.03;;;21.30;;
42066;SDS011;27734;47.028;28.820;2022-10-16T00:31:03;41.57;;;22.63;;
42066;SDS011;27734;47.028;28.820;2022-10-16T00:33:35;41.43;;;21.07;;
42066;SDS011;27734;47.028;28.820;2022-10-16T00:36:08;41.33;;;23.03;;
42066;SDS011;27734;47.028;28.820;2022-10-16T00:38:42;39.43;;;22.23;;
42066;SDS011;27734;47.028;28.820;2022-10-16T00:41:14;38.27;;;21.93;;
42066;SDS011;27734;47.028;28.820;2022-10-16T00:43:47;38.93;;;22.23;;
42066;SDS011;27734;47.028;28.820;2022-10-16T00:46:20;41.45;;;21.52;;
42066;SDS011;27734;47.028;28.820;2022-10-16T00:48:54;38.30;;;20.88;;
42066;SDS011;27734;47.028;28.820;2022-10-16T00:51:31;39.73;;;21.63;;
42066;SDS011;27734;47.028;28.820;2022-10-16T00:54:06;37.20;;;21.10;;
42066;SDS011;27734;47.028;28.820;2022-10-16T00:56:40;43.37;;;22.90;;
42066;SDS011;27734;47.028;28.820;2022-10-16T00:59:14;39.77;;;21.40;;
42066;SDS011;27734;47.028;28.820;2022-10-16T01:01:48;40.57;;;22.47;;
42066;SDS011;27734;47.028;28.820;2022-10-16T01:04:20;40.15;;;22.80;;
42066;SDS011;27734;47.028;28.820;2022-10-16T01:06:54;38.03;;;22.27;;
42066;SDS011;27734;47.028;28.820;2022-10-16T01:09:34;42.63;;;22.40;;
42066;SDS011;27734;47.028;28.820;2022-10-16T01:12:13;42.70;;;22.30;;
42066;SDS011;27734;47.028;28.820;2022-10-16T01:14:48;39.27;;;21.37;;
42066;SDS011;27734;47.028;28.820;2022-10-16T01:17:27;43.53;;;23.73;;
42066;SDS011;27734;47.028;28.820;2022-10-16T01:20:07;40.77;;;22.33;;
42066;SDS011;27734;47.028;28.820;2022-10-16T01:22:47;38.10;;;22.67;;
42066;SDS011;27734;47.028;28.820;2022-10-16T01:25:37;40.80;;;21.93;;
42066;SDS011;27734;47.028;28.820;2022-10-16T01:28:22;37.37;;;22.17;;
42066;SDS011;27734;47.028;28.820;2022-10-16T01:30:58;38.00;;;21.50;;
42066;SDS011;27734;47.028;28.820;2022-10-16T01:33:33;38.07;;;21.87;;
42066;SDS011;27734;47.028;28.820;2022-10-16T01:36:10;36.80;;;21.30;;
42066;SDS011;27734;47.028;28.820;2022-10-16T01:38:44;41.27;;;22.17;;
42066;SDS011;27734;47.028;28.820;2022-10-16T01:41:20;43.37;;;23.20;;
42066;SDS011;27734;47.028;28.820;2022-10-16T01:43:58;38.43;;;21.63;;
42066;SDS011;27734;47.028;28.820;2022-10-16T01:46:34;41.50;;;21.87;;
42066;SDS011;27734;47.028;28.820;2022-10-16T01:49:08;41.10;;;21.97;;
42066;SDS011;27734;47.028;28.820;2022-10-16T01:51:41;40.97;;;22.37;;
42066;SDS011;27734;47.028;28.820;2022-10-16T01:54:16;39.60;;;21.97;;
42066;SDS011;27734;47.028;28.820;2022-10-16T01:56:49;38.80;;;21.93;;
42066;SDS011;27734;47.028;28.820;2022-10-16T01:59:23;38.67;;;21.23;;
42066;SDS011;27734;47.028;28.820;2022-10-16T02:02:00;38.10;;;21.43;;
42066;SDS011;27734;47.028;28.820;2022-10-16T02:04:36;42.90;;;21.60;;
42066;SDS011;27734;47.028;28.820;2022-10-16T02:07:11;37.43;;;19.83;;
42066;SDS011;27734;47.028;28.820;2022-10-16T02:09:43;38.73;;;21.40;;
42066;SDS011;27734;47.028;28.820;2022-10-16T02:12:15;41.40;;;21.20;;
42066;SDS011;27734;47.028;28.820;2022-10-16T02:14:50;41.47;;;21.27;;
42066;SDS011;27734;47.028;28.820;2022-10-16T02:17:22;36.77;;;20.90;;
42066;SDS011;27734;47.028;28.820;2022-10-16T02:19:54;39.23;;;21.10;;
42066;SDS011;27734;47.028;28.820;2022-10-16T02:22:28;41.23;;;19.60;;
42066;SDS011;27734;47.028;28.820;2022-10-16T02:25:04;35.67;;;20.03;;
42066;SDS011;27734;47.028;28.820;2022-10-16T02:27:40;38.37;;;20.83;;
42066;SDS011;27734;47.028;28.820;2022-10-16T02:30:19;37.30;;;21.03;;
42066;SDS011;27734;47.028;28.820;2022-10-16T02:32:54;37.65;;;20.80;;
42066;SDS011;27734;47.028;28.820;2022-10-16T02:35:28;44.20;;;22.15;;
42066;SDS011;27734;47.028;28.820;2022-10-16T02:37:59;41.63;;;21.53;;
42066;SDS011;27734;47.028;28.820;2022-10-16T02:40:32;37.83;;;21.17;;
42066;SDS011;27734;47.028;28.820;2022-10-16T02:43:04;38.93;;;21.47;;
42066;SDS011;27734;47.028;28.820;2022-10-16T02:45:37;37.53;;;20.40;;
42066;SDS011;27734;47.028;28.820;2022-10-16T02:48:08;42.50;;;21.87;;
42066;SDS011;27734;47.028;28.820;2022-10-16T02:50:40;38.57;;;20.53;;
42066;SDS011;27734;47.028;28.820;2022-10-16T02:53:11;42.07;;;21.70;;
42066;SDS011;27734;47.028;28.820;2022-10-16T02:55:42;40.57;;;21.20;;
42066;SDS011;27734;47.028;28.820;2022-10-16T02:58:13;39.40;;;20.43;;
42066;SDS011;27734;47.028;28.820;2022-10-16T03:00:44;41.23;;;21.70;;
42066;SDS011;27734;47.028;28.820;2022-10-16T03:03:15;41.60;;;20.67;;
42066;SDS011;27734;47.028;28.820;2022-10-16T03:05:47;38.23;;;20.00;;
42066;SDS011;27734;47.028;28.820;2022-10-16T03:08:18;37.60;;;21.73;;
42066;SDS011;27734;47.028;28.820;2022-10-16T03:10:52;37.15;;;19.85;;
42066;SDS011;27734;47.028;28.820;2022-10-16T03:13:23;40.33;;;20.77;;
42066;SDS011;27734;47.028;28.820;2022-10-16T03:15:54;45.47;;;20.47;;
42066;SDS011;27734;47.028;28.820;2022-10-16T03:18:25;42.25;;;20.10;;
42066;SDS011;27734;47.028;28.820;2022-10-16T03:20:57;38.00;;;20.13;;
42066;SDS011;27734;47.028;28.820;2022-10-16T03:23:28;36.13;;;20.03;;
42066;SDS011;27734;47.028;28.820;2022-10-16T03:25:59;37.53;;;18.70;;
42066;SDS011;27734;47.028;28.820;2022-10-16T03:28:30;44.70;;;19.00;;
42066;SDS011;27734;47.028;28.820;2022-10-16T03:31:01;40.67;;;19.87;;
42066;SDS011;27734;47.028;28.820;2022-10-16T03:33:32;38.17;;;18.73;;
42066;SDS011;27734;47.028;28.820;2022-10-16T03:36:04;45.43;;;19.90;;
42066;SDS011;27734;47.028;28.820;2022-10-16T03:38:35;39.40;;;19.00;;
42066;SDS011;27734;47.028;28.820;2022-10-16T03:41:06;38.73;;;19.50;;
42066;SDS011;27734;47.028;28.820;2022-10-16T03:43:37;44.27;;;19.57;;
42066;SDS011;27734;47.028;28.820;2022-10-16T03:46:08;45.90;;;18.80;;
42066;SDS011;27734;47.028;28.820;2022-10-16T03:48:39;35.43;;;19.50;;
42066;SDS011;27734;47.028;28.820;2022-10-16T03:51:10;37.83;;;19.90;;
42066;SDS011;27734;47.028;28.820;2022-10-16T03:53:42;34.60;;;19.50;;
42066;SDS011;27734;47.028;28.820;2022-10-16T03:56:13;36.37;;;19.10;;
42066;SDS011;27734;47.028;28.820;2022-10-16T03:58:44;34.37;;;19.30;;
42066;SDS011;27734;47.028;28.820;2022-10-16T04:01:15;38.40;;;19.33;;
42066;SDS011;27734;47.028;28.820;2022-10-16T04:03:46;35.97;;;19.73;;
42066;SDS011;27734;47.028;28.820;2022-10-16T04:06:17;34.10;;;18.57;;
42066;SDS011;27734;47.028;28.820;2022-10-16T04:08:48;37.90;;;18.67;;
42066;SDS011;27734;47.028;28.820;2022-10-16T04:11:20;40.87;;;19.03;;
42066;SDS011;27734;47.028;28.820;2022-10-16T04:13:51;40.20;;;19.40;;
42066;SDS011;27734;47.028;28.820;2022-10-16T04:16:22;39.93;;;17.80;;
42066;SDS011;27734;47.028;28.820;2022-10-16T04:18:53;34.20;;;18.73;;
42066;SDS011;27734;47.028;28.820;2022-10-16T04:21:24;39.50;;;18.00;;
42066;SDS011;27734;47.028;28.820;2022-10-16T04:23:55;44.17;;;18.30;;
42066;SDS011;27734;47.028;28.820;2022-10-16T04:26:27;49.50;;;18.85;;
42066;SDS011;27734;47.028;28.820;2022-10-16T04:28:58;46.77;;;18.57;;
42066;SDS011;27734;47.028;28.820;2022-10-16T04:31:29;51.03;;;19.53;;
42066;SDS011;27734;47.028;28.820;2022-10-16T04:34:00;41.07;;;18.63;;
42066;SDS011;27734;47.028;28.820;2022-10-16T04:36:31;44.93;;;18.87;;
42066;SDS011;27734;47.028;28.820;2022-10-16T04:39:02;35.43;;;18.70;;
42066;SDS011;27734;47.028;28.820;2022-10-16T04:41:34;38.13;;;19.83;;
42066;SDS011;27734;47.028;28.820;2022-10-16T04:44:05;37.73;;;20.47;;
42066;SDS011;27734;47.028;28.820;2022-10-16T04:46:36;38.67;;;19.83;;
42066;SDS011;27734;47.028;28.820;2022-10-16T04:49:07;35.10;;;18.83;;
42066;SDS011;27734;47.028;28.820;2022-10-16T04:51:38;33.17;;;18.70;;
42066;SDS011;27734;47.028;28.820;2022-10-16T04:54:09;34.63;;;17.37;;
42066;SDS011;27734;47.028;28.820;2022-10-16T04:56:41;35.70;;;18.67;;
42066;SDS011;27734;47.028;28.820;2022-10-16T05:01:45;34.20;;;17.70;;
42066;SDS011;27734;47.028;28.820;2022-10-16T05:04:16;32.40;;;17.47;;
42066;SDS011;27734;47.028;28.820;2022-10-16T05:06:47;34.67;;;18.03;;
42066;SDS011;27734;47.028;28.820;2022-10-16T05:09:19;35.00;;;19.20;;
42066;SDS011;27734;47.028;28.820;2022-10-16T05:11:50;36.00;;;17.90;;
42066;SDS011;27734;47.028;28.820;2022-10-16T05:14:22;38.20;;;18.53;;
42066;SDS011;27734;47.028;28.820;2022-10-16T05:16:53;33.67;;;17.93;;
42066;SDS011;27734;47.028;28.820;2022-10-16T05:19:24;34.33;;;18.03;;
42066;SDS011;27734;47.028;28.820;2022-10-16T05:21:55;42.60;;;17.93;;
42066;SDS011;27734;47.028;28.820;2022-10-16T05:24:26;41.43;;;18.17;;
42066;SDS011;27734;47.028;28.820;2022-10-16T05:26:57;50.37;;;18.00;;
42066;SDS011;27734;47.028;28.820;2022-10-16T05:29:28;47.70;;;17.97;;
42066;SDS011;27734;47.028;28.820;2022-10-16T05:32:00;42.73;;;18.77;;
42066;SDS011;27734;47.028;28.820;2022-10-16T05:34:31;45.63;;;18.00;;
42066;SDS011;27734;47.028;28.820;2022-10-16T05:37:02;43.07;;;18.97;;
42066;SDS011;27734;47.028;28.820;2022-10-16T05:39:33;53.57;;;21.17;;
42066;SDS011;27734;47.028;28.820;2022-10-16T05:42:05;52.93;;;18.47;;
42066;SDS011;27734;47.028;28.820;2022-10-16T05:44:36;57.33;;;18.53;;
42066;SDS011;27734;47.028;28.820;2022-10-16T05:47:07;45.87;;;17.73;;
42066;SDS011;27734;47.028;28.820;2022-10-16T05:49:39;52.23;;;19.47;;
42066;SDS011;27734;47.028;28.820;2022-10-16T05:52:10;37.77;;;19.80;;
42066;SDS011;27734;47.028;28.820;2022-10-16T05:54:41;44.13;;;18.27;;
42066;SDS011;27734;47.028;28.820;2022-10-16T05:57:13;52.13;;;18.93;;
42066;SDS011;27734;47.028;28.820;2022-10-16T05:59:44;42.03;;;18.53;;
42066;SDS011;27734;47.028;28.820;2022-10-16T06:02:15;47.27;;;19.43;;
42066;SDS011;27734;47.028;28.820;2022-10-16T06:04:46;39.37;;;19.50;;
42066;SDS011;27734;47.028;28.820;2022-10-16T06:07:17;38.30;;;19.20;;
42066;SDS011;27734;47.028;28.820;2022-10-16T06:09:49;32.27;;;18.13;;
42066;SDS011;27734;47.028;28.820;2022-10-16T06:12:21;34.80;;;18.07;;
42066;SDS011;27734;47.028;28.820;2022-10-16T06:14:52;34.40;;;18.20;;
42066;SDS011;27734;47.028;28.820;2022-10-16T06:17:23;35.37;;;18.70;;
42066;SDS011;27734;47.028;28.820;2022-10-16T06:19:54;32.10;;;18.83;;
42066;SDS011;27734;47.028;28.820;2022-10-16T06:22:25;34.00;;;19.05;;
42066;SDS011;27734;47.028;28.820;2022-10-16T06:24:56;36.80;;;19.13;;
42066;SDS011;27734;47.028;28.820;2022-10-16T06:27:28;36.40;;;19.60;;
42066;SDS011;27734;47.028;28.820;2022-10-16T06:29:59;39.83;;;19.87;;
42066;SDS011;27734;47.028;28.820;2022-10-16T06:32:32;38.07;;;19.47;;
42066;SDS011;27734;47.028;28.820;2022-10-16T06:35:04;38.07;;;19.23;;
42066;SDS011;27734;47.028;28.820;2022-10-16T06:37:36;35.17;;;18.60;;
42066;SDS011;27734;47.028;28.820;2022-10-16T06:40:08;33.67;;;18.23;;
42066;SDS011;27734;47.028;28.820;2022-10-16T06:42:39;36.00;;;17.87;;
42066;SDS011;27734;47.028;28.820;2022-10-16T06:45:10;32.50;;;18.00;;
42066;SDS011;27734;47.028;28.820;2022-10-16T06:47:42;36.30;;;18.40;;
42066;SDS011;27734;47.028;28.820;2022-10-16T06:50:13;31.97;;;18.67;;
42066;SDS011;27734;47.028;28.820;2022-10-16T06:52:44;32.33;;;17.83;;
42066;SDS011;27734;47.028;28.820;2022-10-16T06:55:15;34.87;;;17.47;;
42066;SDS011;27734;47.028;28.820;2022-10-16T06:57:47;32.47;;;17.47;;
42066;SDS011;27734;47.028;28.820;2022-10-16T07:00:18;33.83;;;16.27;;
42066;SDS011;27734;47.028;28.820;2022-10-16T07:02:49;31.60;;;17.07;;
42066;SDS011;27734;47.028;28.820;2022-10-16T07:05:21;30.27;;;16.03;;
42066;SDS011;27734;47.028;28.820;2022-10-16T07:07:52;32.07;;;15.87;;
42066;SDS011;27734;47.028;28.820;2022-10-16T07:10:23;32.30;;;15.07;;
42066;SDS011;27734;47.028;28.820;2022-10-16T07:12:54;27.57;;;14.60;;
42066;SDS011;27734;47.028;28.820;2022-10-16T07:15:28;31.13;;;14.20;;
42066;SDS011;27734;47.028;28.820;2022-10-16T07:17:59;32.48;;;14.50;;
42066;SDS011;27734;47.028;28.820;2022-10-16T07:20:30;28.77;;;14.53;;
42066;SDS011;27734;47.028;28.820;2022-10-16T07:23:01;30.57;;;14.83;;
42066;SDS011;27734;47.028;28.820;2022-10-16T07:25:33;26.30;;;12.33;;
42066;SDS011;27734;47.028;28.820;2022-10-16T07:28:04;23.27;;;11.13;;
42066;SDS011;27734;47.028;28.820;2022-10-16T07:30:36;25.43;;;10.57;;
42066;SDS011;27734;47.028;28.820;2022-10-16T07:33:07;24.80;;;11.00;;
42066;SDS011;27734;47.028;28.820;2022-10-16T07:35:38;26.47;;;13.17;;
42066;SDS011;27734;47.028;28.820;2022-10-16T07:38:18;24.73;;;12.20;;
42066;SDS011;27734;47.028;28.820;2022-10-16T07:40:55;26.30;;;13.13;;
42066;SDS011;27734;47.028;28.820;2022-10-16T07:43:27;27.80;;;12.83;;
42066;SDS011;27734;47.028;28.820;2022-10-16T07:45:59;22.17;;;11.90;;
42066;SDS011;27734;47.028;28.820;2022-10-16T07:48:31;24.70;;;12.27;;
42066;SDS011;27734;47.028;28.820;2022-10-16T07:51:04;22.57;;;11.47;;
42066;SDS011;27734;47.028;28.820;2022-10-16T07:53:36;21.27;;;11.43;;
42066;SDS011;27734;47.028;28.820;2022-10-16T07:56:07;22.87;;;11.90;;
42066;SDS011;27734;47.028;28.820;2022-10-16T07:58:38;24.30;;;10.90;;
42066;SDS011;27734;47.028;28.820;2022-10-16T08:01:11;25.50;;;11.43;;
42066;SDS011;27734;47.028;28.820;2022-10-16T08:03:43;22.37;;;11.33;;
42066;SDS011;27734;47.028;28.820;2022-10-16T08:06:16;24.30;;;11.60;;
42066;SDS011;27734;47.028;28.820;2022-10-16T08:08:48;21.67;;;10.10;;
42066;SDS011;27734;47.028;28.820;2022-10-16T08:11:19;21.20;;;9.77;;
42066;SDS011;27734;47.028;28.820;2022-10-16T08:13:51;21.80;;;10.03;;
42066;SDS011;27734;47.028;28.820;2022-10-16T08:16:22;20.40;;;9.77;;
42066;SDS011;27734;47.028;28.820;2022-10-16T08:18:53;19.07;;;10.00;;
42066;SDS011;27734;47.028;28.820;2022-10-16T08:21:24;23.03;;;10.53;;
42066;SDS011;27734;47.028;28.820;2022-10-16T08:23:55;25.40;;;10.90;;
42066;SDS011;27734;47.028;28.820;2022-10-16T08:26:27;24.17;;;10.50;;
42066;SDS011;27734;47.028;28.820;2022-10-16T08:28:58;20.70;;;10.20;;
42066;SDS011;27734;47.028;28.820;2022-10-16T08:31:29;20.97;;;10.63;;
42066;SDS011;27734;47.028;28.820;2022-10-16T08:34:00;21.03;;;9.73;;
42066;SDS011;27734;47.028;28.820;2022-10-16T08:36:31;24.43;;;9.50;;
42066;SDS011;27734;47.028;28.820;2022-10-16T08:39:03;19.37;;;9.17;;
42066;SDS011;27734;47.028;28.820;2022-10-16T08:44:49;18.73;;;9.03;;
42066;SDS011;27734;47.028;28.820;2022-10-16T08:47:42;22.80;;;9.60;;
42066;SDS011;27734;47.028;28.820;2022-10-16T08:50:21;21.33;;;8.10;;
42066;SDS011;27734;47.028;28.820;2022-10-16T08:52:55;20.10;;;8.13;;
42066;SDS011;27734;47.028;28.820;2022-10-16T08:55:32;18.57;;;8.53;;
42066;SDS011;27734;47.028;28.820;2022-10-16T08:58:11;19.47;;;8.17;;
42066;SDS011;27734;47.028;28.820;2022-10-16T09:00:44;17.43;;;8.43;;
42066;SDS011;27734;47.028;28.820;2022-10-16T09:03:23;20.10;;;8.77;;
42066;SDS011;27734;47.028;28.820;2022-10-16T09:06:07;16.53;;;8.37;;
42066;SDS011;27734;47.028;28.820;2022-10-16T09:08:49;18.17;;;8.40;;
42066;SDS011;27734;47.028;28.820;2022-10-16T09:11:30;18.03;;;8.00;;
42066;SDS011;27734;47.028;28.820;2022-10-16T09:14:13;16.20;;;6.73;;
42066;SDS011;27734;47.028;28.820;2022-10-16T09:17:06;14.87;;;6.50;;
42066;SDS011;27734;47.028;28.820;2022-10-16T09:19:55;13.60;;;6.17;;
42066;SDS011;27734;47.028;28.820;2022-10-16T09:22:43;16.70;;;6.03;;
42066;SDS011;27734;47.028;28.820;2022-10-16T09:25:15;11.17;;;5.20;;
42066;SDS011;27734;47.028;28.820;2022-10-16T09:27:50;13.20;;;4.43;;
42066;SDS011;27734;47.028;28.820;2022-10-16T09:30:26;10.60;;;5.17;;
42066;SDS011;27734;47.028;28.820;2022-10-16T09:32:58;11.43;;;4.17;;
42066;SDS011;27734;47.028;28.820;2022-10-16T09:35:33;7.77;;;3.70;;
42066;SDS011;27734;47.028;28.820;2022-10-16T09:38:07;11.77;;;4.37;;
42066;SDS011;27734;47.028;28.820;2022-10-16T09:40:49;13.77;;;4.43;;
42066;SDS011;27734;47.028;28.820;2022-10-16T09:43:22;9.50;;;3.80;;
42066;SDS011;27734;47.028;28.820;2022-10-16T09:45:59;10.20;;;4.43;;
42066;SDS011;27734;47.028;28.820;2022-10-16T09:48:33;11.57;;;4.12;;
42066;SDS011;27734;47.028;28.820;2022-10-16T09:51:16;11.63;;;4.33;;
42066;SDS011;27734;47.028;28.820;2022-10-16T09:53:54;8.20;;;4.20;;
42066;SDS011;27734;47.028;28.820;2022-10-16T09:56:28;11.33;;;3.70;;
42066;SDS011;27734;47.028;28.820;2022-10-16T09:59:03;11.35;;;4.58;;
42066;SDS011;27734;47.028;28.820;2022-10-16T10:01:41;11.50;;;4.30;;
42066;SDS011;27734;47.028;28.820;2022-10-16T10:04:15;9.90;;;4.00;;
42066;SDS011;27734;47.028;28.820;2022-10-16T10:06:46;13.40;;;4.23;;
42066;SDS011;27734;47.028;28.820;2022-10-16T10:09:21;11.00;;;4.07;;
42066;SDS011;27734;47.028;28.820;2022-10-16T10:11:55;10.50;;;3.87;;
42066;SDS011;27734;47.028;28.820;2022-10-16T10:14:32;8.30;;;3.60;;
42066;SDS011;27734;47.028;28.820;2022-10-16T10:17:11;9.07;;;3.87;;
42066;SDS011;27734;47.028;28.820;2022-10-16T10:19:52;11.10;;;3.80;;
42066;SDS011;27734;47.028;28.820;2022-10-16T10:22:28;8.97;;;3.80;;
42066;SDS011;27734;47.028;28.820;2022-10-16T10:25:07;9.37;;;4.20;;
42066;SDS011;27734;47.028;28.820;2022-10-16T10:28:03;10.40;;;4.10;;
42066;SDS011;27734;47.028;28.820;2022-10-16T10:30:55;10.90;;;3.97;;
42066;SDS011;27734;47.028;28.820;2022-10-16T10:33:33;10.00;;;3.57;;
42066;SDS011;27734;47.028;28.820;2022-10-16T10:36:22;8.73;;;3.80;;
42066;SDS011;27734;47.028;28.820;2022-10-16T10:38:58;7.30;;;3.63;;
42066;SDS011;27734;47.028;28.820;2022-10-16T10:47:53;11.23;;;4.00;;
42066;SDS011;27734;47.028;28.820;2022-10-16T10:50:37;8.37;;;3.80;;
42066;SDS011;27734;47.028;28.820;2022-10-16T10:53:20;9.77;;;4.10;;
42066;SDS011;27734;47.028;28.820;2022-10-16T10:56:03;8.77;;;4.00;;
42066;SDS011;27734;47.028;28.820;2022-10-16T10:59:06;9.57;;;3.83;;
42066;SDS011;27734;47.028;28.820;2022-10-16T11:01:53;6.77;;;3.40;;
42066;SDS011;27734;47.028;28.820;2022-10-16T11:04:32;8.10;;;3.35;;
42066;SDS011;27734;47.028;28.820;2022-10-16T11:07:15;8.60;;;3.50;;
42066;SDS011;27734;47.028;28.820;2022-10-16T11:09:51;6.63;;;3.30;;
42066;SDS011;27734;47.028;28.820;2022-10-16T11:12:27;8.87;;;3.43;;
42066;SDS011;27734;47.028;28.820;2022-10-16T11:15:04;7.97;;;3.70;;
42066;SDS011;27734;47.028;28.820;2022-10-16T11:17:44;6.80;;;3.40;;
42066;SDS011;27734;47.028;28.820;2022-10-16T11:20:21;10.50;;;3.63;;
42066;SDS011;27734;47.028;28.820;2022-10-16T11:22:55;10.57;;;3.93;;
42066;SDS011;27734;47.028;28.820;2022-10-16T11:25:32;8.60;;;3.60;;
42066;SDS011;27734;47.028;28.820;2022-10-16T11:28:06;8.77;;;3.90;;
42066;SDS011;27734;47.028;28.820;2022-10-16T11:30:44;9.40;;;4.00;;
42066;SDS011;27734;47.028;28.820;2022-10-16T11:33:23;10.13;;;4.30;;
42066;SDS011;27734;47.028;28.820;2022-10-16T11:36:02;11.03;;;4.33;;
42066;SDS011;27734;47.028;28.820;2022-10-16T11:38:41;9.87;;;3.93;;
42066;SDS011;27734;47.028;28.820;2022-10-16T11:41:22;12.63;;;4.10;;
42066;SDS011;27734;47.028;28.820;2022-10-16T11:44:02;10.10;;;4.40;;
42066;SDS011;27734;47.028;28.820;2022-10-16T11:46:46;11.57;;;4.50;;
42066;SDS011;27734;47.028;28.820;2022-10-16T11:49:22;10.90;;;4.13;;
42066;SDS011;27734;47.028;28.820;2022-10-16T11:51:58;9.97;;;3.70;;
42066;SDS011;27734;47.028;28.820;2022-10-16T11:54:37;11.03;;;3.90;;
42066;SDS011;27734;47.028;28.820;2022-10-16T11:57:15;8.20;;;3.80;;
42066;SDS011;27734;47.028;28.820;2022-10-16T11:59:50;11.90;;;4.97;;
42066;SDS011;27734;47.028;28.820;2022-10-16T12:02:28;8.50;;;4.20;;
42066;SDS011;27734;47.028;28.820;2022-10-16T12:05:11;8.03;;;4.20;;
42066;SDS011;27734;47.028;28.820;2022-10-16T12:07:50;9.10;;;3.50;;
42066;SDS011;27734;47.028;28.820;2022-10-16T12:10:28;10.37;;;4.27;;
42066;SDS011;27734;47.028;28.820;2022-10-16T12:13:25;10.27;;;4.50;;
42066;SDS011;27734;47.028;28.820;2022-10-16T12:16:19;10.17;;;4.10;;
42066;SDS011;27734;47.028;28.820;2022-10-16T12:21:44;8.00;;;3.77;;
42066;SDS011;27734;47.028;28.820;2022-10-16T12:24:26;11.37;;;4.10;;
42066;SDS011;27734;47.028;28.820;2022-10-16T12:27:02;11.63;;;4.33;;
42066;SDS011;27734;47.028;28.820;2022-10-16T12:29:36;9.10;;;4.25;;
42066;SDS011;27734;47.028;28.820;2022-10-16T12:32:21;12.83;;;4.27;;
42066;SDS011;27734;47.028;28.820;2022-10-16T12:34:57;10.57;;;4.30;;
42066;SDS011;27734;47.028;28.820;2022-10-16T12:37:31;7.90;;;4.03;;
42066;SDS011;27734;47.028;28.820;2022-10-16T12:40:12;9.17;;;4.07;;
42066;SDS011;27734;47.028;28.820;2022-10-16T12:42:52;7.67;;;3.87;;
42066;SDS011;27734;47.028;28.820;2022-10-16T12:45:28;9.37;;;4.30;;
42066;SDS011;27734;47.028;28.820;2022-10-16T12:48:00;11.97;;;4.07;;
42066;SDS011;27734;47.028;28.820;2022-10-16T12:50:36;9.67;;;3.60;;
42066;SDS011;27734;47.028;28.820;2022-10-16T12:53:18;11.77;;;4.00;;
42066;SDS011;27734;47.028;28.820;2022-10-16T12:55:54;8.10;;;3.70;;
42066;SDS011;27734;47.028;28.820;2022-10-16T12:58:35;7.00;;;3.70;;
42066;SDS011;27734;47.028;28.820;2022-10-16T13:01:21;11.47;;;3.90;;
42066;SDS011;27734;47.028;28.820;2022-10-16T13:04:15;10.73;;;4.03;;
42066;SDS011;27734;47.028;28.820;2022-10-16T13:07:15;9.67;;;3.67;;
42066;SDS011;27734;47.028;28.820;2022-10-16T13:10:00;10.97;;;3.83;;
42066;SDS011;27734;47.028;28.820;2022-10-16T13:12:45;6.90;;;3.50;;
42066;SDS011;27734;47.028;28.820;2022-10-16T13:15:31;12.53;;;3.60;;
42066;SDS011;27734;47.028;28.820;2022-10-16T13:18:13;9.80;;;3.73;;
42066;SDS011;27734;47.028;28.820;2022-10-16T13:20:54;10.20;;;4.00;;
42066;SDS011;27734;47.028;28.820;2022-10-16T13:23:35;6.53;;;3.40;;
42066;SDS011;27734;47.028;28.820;2022-10-16T13:26:15;6.90;;;3.47;;
42066;SDS011;27734;47.028;28.820;2022-10-16T13:28:59;8.40;;;3.20;;
42066;SDS011;27734;47.028;28.820;2022-10-16T13:31:30;9.43;;;3.50;;
42066;SDS011;27734;47.028;28.820;2022-10-16T13:34:02;8.93;;;3.30;;
42066;SDS011;27734;47.028;28.820;2022-10-16T13:36:42;9.00;;;3.37;;
42066;SDS011;27734;47.028;28.820;2022-10-16T13:39:15;7.87;;;3.10;;
42066;SDS011;27734;47.028;28.820;2022-10-16T13:42:00;6.63;;;3.20;;
42066;SDS011;27734;47.028;28.820;2022-10-16T13:44:35;9.07;;;3.67;;
42066;SDS011;27734;47.028;28.820;2022-10-16T13:47:17;7.67;;;3.30;;
42066;SDS011;27734;47.028;28.820;2022-10-16T13:49:59;5.10;;;3.03;;
42066;SDS011;27734;47.028;28.820;2022-10-16T13:52:32;9.67;;;3.40;;
42066;SDS011;27734;47.028;28.820;2022-10-16T13:55:04;9.63;;;4.00;;
42066;SDS011;27734;47.028;28.820;2022-10-16T13:57:41;11.80;;;3.70;;
42066;SDS011;27734;47.028;28.820;2022-10-16T14:00:20;9.23;;;3.37;;
42066;SDS011;27734;47.028;28.820;2022-10-16T14:02:55;8.93;;;3.07;;
42066;SDS011;27734;47.028;28.820;2022-10-16T14:05:31;6.67;;;3.27;;
42066;SDS011;27734;47.028;28.820;2022-10-16T14:08:03;7.83;;;3.43;;
42066;SDS011;27734;47.028;28.820;2022-10-16T14:10:39;6.67;;;3.50;;
42066;SDS011;27734;47.028;28.820;2022-10-16T14:13:14;7.77;;;3.47;;
42066;SDS011;27734;47.028;28.820;2022-10-16T14:15:49;7.97;;;3.47;;
42066;SDS011;27734;47.028;28.820;2022-10-16T14:18:22;11.10;;;3.50;;
42066;SDS011;27734;47.028;28.820;2022-10-16T14:21:01;9.97;;;3.70;;
42066;SDS011;27734;47.028;28.820;2022-10-16T14:23:35;10.47;;;3.50;;
42066;SDS011;27734;47.028;28.820;2022-10-16T14:26:13;9.80;;;3.73;;
42066;SDS011;27734;47.028;28.820;2022-10-16T14:28:46;6.00;;;3.60;;
42066;SDS011;27734;47.028;28.820;2022-10-16T14:31:30;9.33;;;3.40;;
42066;SDS011;27734;47.028;28.820;2022-10-16T14:34:04;9.77;;;3.83;;
42066;SDS011;27734;47.028;28.820;2022-10-16T14:36:48;12.17;;;4.00;;
42066;SDS011;27734;47.028;28.820;2022-10-16T14:39:20;7.43;;;3.63;;
42066;SDS011;27734;47.028;28.820;2022-10-16T14:41:55;10.90;;;4.30;;
42066;SDS011;27734;47.028;28.820;2022-10-16T14:44:29;9.13;;;3.87;;
42066;SDS011;27734;47.028;28.820;2022-10-16T14:47:08;8.60;;;3.67;;
42066;SDS011;27734;47.028;28.820;2022-10-16T14:49:42;8.17;;;3.60;;
42066;SDS011;27734;47.028;28.820;2022-10-16T14:52:14;10.20;;;3.83;;
42066;SDS011;27734;47.028;28.820;2022-10-16T14:54:46;8.60;;;3.90;;
42066;SDS011;27734;47.028;28.820;2022-10-16T14:57:19;9.20;;;3.87;;
42066;SDS011;27734;47.028;28.820;2022-10-16T14:59:52;14.68;;;4.20;;
42066;SDS011;27734;47.028;28.820;2022-10-16T15:02:25;11.07;;;4.20;;
42066;SDS011;27734;47.028;28.820;2022-10-16T15:04:59;11.47;;;4.60;;
42066;SDS011;27734;47.028;28.820;2022-10-16T15:07:39;13.67;;;5.00;;
42066;SDS011;27734;47.028;28.820;2022-10-16T15:10:11;16.17;;;6.23;;
42066;SDS011;27734;47.028;28.820;2022-10-16T15:12:43;15.40;;;5.67;;
42066;SDS011;27734;47.028;28.820;2022-10-16T15:15:23;14.53;;;5.93;;